Kieimaru — JJ3880 — position and weather

sailwx.info

Track history (hours):
 
Tides and Currents Weather Stations Pressure Air Temp Water Temp Dewpoint Dewpoint Depression Visibility Wind Speed Wind Dir Waves Ship Positions

Kieimaru

Last reported at 2018-Apr-24 12:28 UTC. Time now 2018-Apr-24 12:49 UTC.
Position N 33°55' E 132°40'.

Length 100 m; draft 6.8 m.

Type: Cargo ship. MMSI: 431300131.

Date/timePositionNaut miles runAvg speedWind from/ knotsBaromVisibWave heightAir tempDewpointWater temp
2018-Apr-24 12:28N 33°55' E 132°40'510.4
2018-Apr-24 11:57N 33°52' E 132°35'3710.8
2018-Apr-24 08:34N 33°44' E 131°52'311.7
2018-Apr-24 08:20N 33°45' E 131°49'411.7
2018-Apr-24 08:00N 33°45' E 131°44'611.5
2018-Apr-24 07:30N 33°47' E 131°37'611.5
2018-Apr-24 07:00N 33°48' E 131°31'611.5
2018-Apr-24 06:30N 33°49' E 131°24'611.3
2018-Apr-24 06:00N 33°50' E 131°17'510.1
2018-Apr-24 05:30N 33°53' E 131°12'4 7.3
2018-Apr-24 05:00N 33°56' E 131°12'0 0.0
2018-Apr-24 04:28N 33°56' E 131°12'0 0.0
2018-Apr-24 03:58N 33°56' E 131°12'0 0.0
2018-Apr-24 03:28N 33°56' E 131°12'0 0.0
2018-Apr-24 02:58N 33°56' E 131°12'0 0.0
2018-Apr-24 02:25N 33°56' E 131°12'0 0.0
2018-Apr-24 01:52N 33°56' E 131°12'0 0.0
2018-Apr-24 01:22N 33°56' E 131°12'0 0.0
2018-Apr-24 00:58N 33°56' E 131°12'0 0.0
2018-Apr-24 00:28N 33°56' E 131°12'0 0.0
2018-Apr-23 23:58N 33°56' E 131°12'0 0.0
2018-Apr-23 23:28N 33°56' E 131°12'0 0.0
2018-Apr-23 22:58N 33°56' E 131°12'0 0.0
2018-Apr-23 22:28N 33°56' E 131°12'0 0.1
2018-Apr-23 22:00N 33°56' E 131°12'2 4.7
2018-Apr-23 21:31N 33°54' E 131°12'0 0.0
2018-Apr-23 21:00N 33°54' E 131°12'3 7.0
2018-Apr-23 20:31N 33°52' E 131°15'713.4
2018-Apr-23 20:00N 33°50' E 131°23'713.4
2018-Apr-23 19:30N 33°49' E 131°31'713.4
2018-Apr-23 19:00N 33°48' E 131°39'713.5
2018-Apr-23 18:30N 33°46' E 131°47'713.2
2018-Apr-23 17:58N 33°44' E 131°55'1512.5
2018-Apr-23 16:46N 33°43' E 132°13'912.4
2018-Apr-23 16:00N 33°46' E 132°24'712.2
2018-Apr-23 15:28N 33°49' E 132°31'612.7
2018-Apr-23 14:59N 33°54' E 132°36'612.9
2018-Apr-23 14:31N 33°57' E 132°42'7412.0
2018-Apr-23 08:19N 34°27' E 134°04'412.4
2018-Apr-23 07:58N 34°26' E 134°09'712.5
2018-Apr-23 07:25N 34°24' E 134°17'613.0
2018-Apr-23 06:59N 34°26' E 134°24'613.0
2018-Apr-23 06:30N 34°30' E 134°30'713.2
2018-Apr-23 06:00N 34°34' E 134°37'713.2
2018-Apr-23 05:30N 34°37' E 134°43'713.2
2018-Apr-23 05:00N 34°41' E 134°49'1 1.6
2018-Apr-23 04:13N 34°43' E 134°50'0 0.1
2018-Apr-23 03:50N 34°43' E 134°50'0 0.0
2018-Apr-23 03:25N 34°43' E 134°50'0 0.0
2018-Apr-23 02:49N 34°43' E 134°50'0 0.0
2018-Apr-23 02:25N 34°43' E 134°50'0 0.0
2018-Apr-23 01:55N 34°43' E 134°50'0 0.0
2018-Apr-23 01:07N 34°43' E 134°50'0 0.0
2018-Apr-23 00:55N 34°43' E 134°50'0 0.0
2018-Apr-23 00:25N 34°43' E 134°50'0 0.0
2018-Apr-22 23:49N 34°43' E 134°50'0 0.0
2018-Apr-22 23:13N 34°43' E 134°50'0 0.0
2018-Apr-22 22:55N 34°43' E 134°50'0 0.1
2018-Apr-22 22:25N 34°43' E 134°50'0 0.1
2018-Apr-22 21:55N 34°43' E 134°50'0 0.0
2018-Apr-22 21:19N 34°43' E 134°50'0 0.0
2018-Apr-22 20:55N 34°43' E 134°50'0 0.1
2018-Apr-22 20:25N 34°43' E 134°50'0 0.1
2018-Apr-22 19:58N 34°43' E 134°50'0 0.0
2018-Apr-22 19:25N 34°43' E 134°50'0 0.0
2018-Apr-22 18:58N 34°43' E 134°50'0 0.0
2018-Apr-22 18:28N 34°43' E 134°50'0 0.0
2018-Apr-22 17:55N 34°43' E 134°50'0 0.0
2018-Apr-22 17:30N 34°43' E 134°50'3 5.4
2018-Apr-22 17:00N 34°40' E 134°49'612.1
2018-Apr-22 16:30N 34°37' E 134°56'713.7
2018-Apr-22 16:00N 34°36' E 135°04'510.0
2018-Apr-22 15:30N 34°31' E 135°05'612.2
2018-Apr-22 15:00N 34°25' E 135°04'612.4
2018-Apr-22 14:30N 34°19' E 135°00'612.2
2018-Apr-22 14:00N 34°13' E 134°59'511.0
2018-Apr-22 13:30N 34°08' E 134°59'611.9
2018-Apr-22 13:00N 34°02' E 134°56'612.0
2018-Apr-22 12:29N 33°56' E 134°54'711.9
2018-Apr-22 11:55N 33°50' E 134°51'511.3
2018-Apr-22 11:28N 33°46' E 134°47'611.9
2018-Apr-22 10:57N 33°42' E 134°42'511.7
2018-Apr-22 10:30N 33°38' E 134°38'611.3
2018-Apr-22 10:00N 33°34' E 134°33'611.5
2018-Apr-22 09:28N 33°29' E 134°28'17 1.1
2018-Apr-21 17:40N 33°16' E 134°15'212.0
2018-Apr-21 17:30N 33°17' E 134°17'611.8
2018-Apr-21 17:00N 33°21' E 134°21'612.3
2018-Apr-21 16:30N 33°26' E 134°26'612.6
2018-Apr-21 16:00N 33°31' E 134°31'713.1
2018-Apr-21 15:30N 33°36' E 134°36'612.8
2018-Apr-21 15:00N 33°41' E 134°41'712.7
2018-Apr-21 14:26N 33°46' E 134°47'512.6
2018-Apr-21 14:00N 33°50' E 134°51'811.9
2018-Apr-21 13:20N 33°58' E 134°53'411.9
2018-Apr-21 12:57N 34°03' E 134°54'612.2
2018-Apr-21 12:30N 34°08' E 134°56'713.6
2018-Apr-21 12:00N 34°14' E 134°58'612.2
2018-Apr-21 11:30N 34°20' E 134°59'612.2
2018-Apr-21 11:01N 34°26' E 135°01'612.3
2018-Apr-21 10:31N 34°32' E 135°03'611.2
2018-Apr-21 10:00N 34°37' E 134°59'714.2
2018-Apr-21 09:30N 34°39' E 134°51'4 6.6
2018-Apr-21 08:54N 34°43' E 134°50'0 0.0
2018-Apr-21 08:30N 34°43' E 134°50'0 0.0
2018-Apr-21 04:24N 34°43' E 134°50'0 0.0
2018-Apr-21 04:00N 34°43' E 134°50'0 0.0
2018-Apr-21 03:06N 34°43' E 134°50'0 0.0
2018-Apr-21 02:45N 34°43' E 134°50'0 0.0
2018-Apr-21 02:30N 34°43' E 134°50'0 0.0
2018-Apr-21 01:57N 34°43' E 134°50'0 0.1
2018-Apr-21 01:27N 34°43' E 134°50'0 0.1
2018-Apr-21 01:00N 34°43' E 134°50'0 0.0
2018-Apr-21 00:27N 34°43' E 134°50'0 0.1
2018-Apr-21 00:00N 34°43' E 134°50'0 0.1
2018-Apr-20 23:30N 34°43' E 134°50'0 0.0
2018-Apr-20 23:00N 34°43' E 134°50'1 1.5
2018-Apr-20 22:30N 34°42' E 134°50'4 8.7
2018-Apr-20 22:00N 34°38' E 134°53'5 9.9
2018-Apr-20 21:30N 34°37' E 134°59'4 8.2
2018-Apr-20 21:00N 34°36' E 135°03'4 7.8
2018-Apr-20 20:30N 34°32' E 135°05'510.9
2018-Apr-20 20:00N 34°27' E 135°03'510.9
2018-Apr-20 19:30N 34°22' E 135°02'510.4
2018-Apr-20 19:00N 34°17' E 134°59'511.0
2018-Apr-20 18:30N 34°12' E 134°59'611.5
2018-Apr-20 18:00N 34°06' E 134°58'611.4
2018-Apr-20 17:30N 34°00' E 134°56'611.3
2018-Apr-20 17:00N 33°55' E 134°54'611.4
2018-Apr-20 16:30N 33°50' E 134°51'611.5
2018-Apr-20 15:59N 33°45' E 134°46'12 0.7
2018-Apr-19 22:55N 33°36' E 134°38'813.5
2018-Apr-19 22:21N 33°42' E 134°44'513.7
2018-Apr-19 22:00N 33°46' E 134°47'613.1
2018-Apr-19 21:30N 33°51' E 134°52'713.4
2018-Apr-19 20:59N 33°58' E 134°54'613.3
2018-Apr-19 20:30N 34°04' E 134°55'713.4
2018-Apr-19 20:00N 34°11' E 134°57'714.4
2018-Apr-19 19:30N 34°18' E 134°58'713.7
2018-Apr-19 19:00N 34°24' E 134°59'713.9
2018-Apr-19 18:30N 34°31' E 135°02'611.6
2018-Apr-19 18:01N 34°37' E 135°01'713.2
2018-Apr-19 17:31N 34°37' E 134°53'511.0
2018-Apr-19 17:00N 34°42' E 134°50'0 0.3
2018-Apr-19 16:04N 34°43' E 134°50'0 0.0
2018-Apr-19 15:58N 34°43' E 134°50'0 0.0
2018-Apr-19 15:22N 34°43' E 134°50'0 0.0
2018-Apr-19 14:58N 34°43' E 134°50'0 0.0
2018-Apr-19 14:28N 34°43' E 134°50'0 0.1
2018-Apr-19 13:58N 34°43' E 134°50'0 0.1
2018-Apr-19 13:28N 34°43' E 134°50'0 0.0
2018-Apr-19 12:58N 34°43' E 134°50'0 0.0
2018-Apr-19 12:28N 34°43' E 134°50'0 0.0
2018-Apr-19 11:04N 34°43' E 134°50'0 0.0
2018-Apr-19 10:58N 34°43' E 134°50'0 0.0
2018-Apr-19 08:34N 34°43' E 134°50'0 0.0
2018-Apr-19 08:25N 34°43' E 134°50'0 0.1
2018-Apr-19 07:58N 34°43' E 134°50'1 2.2
2018-Apr-19 07:30N 34°42' E 134°50'612.1
2018-Apr-19 07:00N 34°38' E 134°44'612.3
2018-Apr-19 06:30N 34°34' E 134°38'611.9
2018-Apr-19 06:00N 34°31' E 134°32'612.0
2018-Apr-19 05:30N 34°28' E 134°26'612.1
2018-Apr-19 05:00N 34°25' E 134°19'7810.8
2018-Apr-18 21:48N 34°04' E 132°49'411.3
2018-Apr-18 21:29N 34°01' E 132°46'510.4
2018-Apr-18 21:00N 33°57' E 132°42'610.0
2018-Apr-18 20:25N 33°53' E 132°37'510.5
2018-Apr-18 19:59N 33°50' E 132°33'610.4
2018-Apr-18 19:26N 33°47' E 132°28'3010.9
2018-Apr-18 16:42N 33°44' E 131°52'312.6
2018-Apr-18 16:29N 33°44' E 131°49'812.4
2018-Apr-18 15:52N 33°46' E 131°40'512.4
2018-Apr-18 15:30N 33°47' E 131°35'612.0
2018-Apr-18 15:00N 33°48' E 131°28'611.7
2018-Apr-18 14:30N 33°49' E 131°21'611.3
2018-Apr-18 14:01N 33°51' E 131°14'5 9.8
2018-Apr-18 13:30N 33°56' E 131°12'1 1.7
2018-Apr-18 13:00N 33°56' E 131°12'0 0.0
2018-Apr-18 12:30N 33°56' E 131°12'0 0.0
2018-Apr-18 12:00N 33°56' E 131°12'0 0.0
2018-Apr-18 11:30N 33°56' E 131°12'0 0.0
2018-Apr-18 11:00N 33°56' E 131°12'0 0.0
2018-Apr-18 10:30N 33°56' E 131°12'0 0.0
2018-Apr-18 10:00N 33°56' E 131°12'0 0.0
2018-Apr-18 09:27N 33°56' E 131°12'0 0.0
2018-Apr-18 09:00N 33°56' E 131°12'0 0.0
2018-Apr-18 08:24N 33°56' E 131°12'0 0.0
2018-Apr-18 08:00N 33°56' E 131°12'0 0.1
2018-Apr-18 07:30N 33°56' E 131°12'2 4.2
2018-Apr-18 07:00N 33°54' E 131°12'0 0.0
2018-Apr-18 06:30N 33°54' E 131°12'0 0.0
2018-Apr-18 06:00N 33°54' E 131°12'0 0.0
2018-Apr-18 05:30N 33°54' E 131°12'0 0.0
2018-Apr-18 05:00N 33°54' E 131°12'0 0.1
2018-Apr-18 04:30N 33°54' E 131°13'0 0.1
2018-Apr-18 03:57N 33°54' E 131°12'0 0.0
2018-Apr-18 03:30N 33°54' E 131°12'0 0.0
2018-Apr-18 03:00N 33°54' E 131°12'0 0.0
2018-Apr-18 02:30N 33°54' E 131°12'0 0.0
2018-Apr-18 02:00N 33°54' E 131°12'0 0.0
2018-Apr-18 01:30N 33°54' E 131°12'0 0.0
2018-Apr-18 01:00N 33°55' E 131°12'0 0.2
2018-Apr-18 00:31N 33°54' E 131°12'611.8
2018-Apr-18 00:00N 33°51' E 131°18'713.1
2018-Apr-17 23:30N 33°50' E 131°26'713.2
2018-Apr-17 23:00N 33°49' E 131°34'713.1
2018-Apr-17 22:30N 33°47' E 131°42'713.2
2018-Apr-17 22:00N 33°46' E 131°49'713.1
2018-Apr-17 21:29N 33°44' E 131°57'713.2
2018-Apr-17 20:56N 33°42' E 132°06'613.0
2018-Apr-17 20:29N 33°43' E 132°13'813.4
2018-Apr-17 19:54N 33°46' E 132°22'613.9
2018-Apr-17 19:30N 33°48' E 132°28'714.0
2018-Apr-17 19:00N 33°52' E 132°34'714.8
2018-Apr-17 18:30N 33°57' E 132°41'7512.5
2018-Apr-17 12:32N 34°27' E 134°04'115.1
2018-Apr-17 12:27N 34°27' E 134°05'714.7
2018-Apr-17 12:00N 34°25' E 134°13'813.6
2018-Apr-17 11:27N 34°25' E 134°22'613.0
2018-Apr-17 10:59N 34°29' E 134°28'712.9
2018-Apr-17 10:27N 34°33' E 134°35'613.2
2018-Apr-17 10:00N 34°36' E 134°41'713.1
2018-Apr-17 09:30N 34°40' E 134°48'4 7.2
2018-Apr-17 09:00N 34°43' E 134°50'0 0.0
2018-Apr-17 08:27N 34°43' E 134°50'0 0.0
2018-Apr-17 06:18N 34°43' E 134°50'0 0.0
2018-Apr-17 04:36N 34°43' E 134°50'0 0.0
2018-Apr-17 02:21N 34°43' E 134°50'0 0.0
2018-Apr-17 01:51N 34°43' E 134°50'0 0.0
2018-Apr-17 01:24N 34°43' E 134°50'0 0.0
2018-Apr-17 00:15N 34°43' E 134°50'0 0.1
2018-Apr-16 23:45N 34°43' E 134°50'0 0.2
2018-Apr-16 23:30N 34°43' E 134°50'0 0.0
2018-Apr-16 23:00N 34°43' E 134°50'2 3.4
2018-Apr-16 22:30N 34°41' E 134°49'611.8
2018-Apr-16 22:00N 34°37' E 134°55'612.0
2018-Apr-16 21:30N 34°37' E 135°02'5 9.6
2018-Apr-16 21:00N 34°32' E 135°05'611.8
2018-Apr-16 20:31N 34°27' E 135°03'611.5
2018-Apr-16 20:00N 34°21' E 135°01'510.6
2018-Apr-16 19:30N 34°16' E 134°59'5 9.8
2018-Apr-16 19:00N 34°11' E 134°59'510.8
2018-Apr-16 18:30N 34°06' E 134°57'510.5
2018-Apr-16 18:00N 34°01' E 134°56'510.1
2018-Apr-16 17:30N 33°56' E 134°54'610.6
2018-Apr-16 16:58N 33°51' E 134°51'10 0.5
2018-Apr-15 19:52N 33°43' E 134°44'713.3
2018-Apr-15 19:21N 33°48' E 134°49'512.9
2018-Apr-15 18:57N 33°53' E 134°52'613.2
2018-Apr-15 18:30N 33°58' E 134°54'713.4
2018-Apr-15 18:00N 34°05' E 134°55'713.6
2018-Apr-15 17:31N 34°11' E 134°57'815.1
2018-Apr-15 17:01N 34°19' E 134°59'714.3
2018-Apr-15 16:30N 34°26' E 135°00'713.6
2018-Apr-15 16:01N 34°32' E 135°02'611.1
2018-Apr-15 15:30N 34°37' E 134°58'713.6
2018-Apr-15 15:00N 34°39' E 134°50'4 6.8
2018-Apr-15 14:29N 34°43' E 134°50'0 0.0
2018-Apr-15 13:56N 34°43' E 134°50'0 0.0
2018-Apr-15 13:26N 34°43' E 134°50'0 0.0
2018-Apr-15 12:59N 34°43' E 134°50'0 0.0
2018-Apr-15 12:26N 34°43' E 134°50'0 0.1
2018-Apr-15 11:56N 34°43' E 134°50'0 0.0
2018-Apr-15 11:29N 34°43' E 134°50'0 0.1
2018-Apr-15 10:56N 34°43' E 134°50'0 0.0
2018-Apr-15 10:26N 34°43' E 134°50'0 0.0
2018-Apr-15 09:56N 34°43' E 134°50'0 0.0
2018-Apr-15 09:26N 34°43' E 134°50'0 0.1
2018-Apr-15 08:56N 34°43' E 134°50'0 0.1
2018-Apr-15 08:26N 34°43' E 134°50'0 0.0
2018-Apr-15 07:56N 34°43' E 134°50'0 0.1
2018-Apr-15 07:26N 34°43' E 134°50'0 0.0
2018-Apr-15 06:56N 34°43' E 134°50'0 0.1
2018-Apr-15 06:20N 34°43' E 134°50'0 0.0
2018-Apr-15 05:59N 34°43' E 134°50'0 0.0
2018-Apr-15 05:26N 34°43' E 134°50'0 0.0
2018-Apr-15 04:59N 34°43' E 134°50'2 4.1
2018-Apr-15 04:30N 34°41' E 134°49'611.8
2018-Apr-15 04:00N 34°37' E 134°43'612.1
2018-Apr-15 03:30N 34°34' E 134°37'611.8
2018-Apr-15 03:01N 34°30' E 134°31'611.7
2018-Apr-15 02:30N 34°27' E 134°25'611.4
2018-Apr-15 02:00N 34°25' E 134°19'80 9.8
2018-Apr-14 17:48N 34°01' E 132°46'310.0
2018-Apr-14 17:30N 33°59' E 132°44'5 9.3
2018-Apr-14 17:00N 33°55' E 132°40'5 9.6
2018-Apr-14 16:29N 33°52' E 132°35'1210.5
2018-Apr-14 15:18N 33°50' E 132°21'1010.4
2018-Apr-14 14:20N 33°48' E 132°09'411.3
2018-Apr-14 14:00N 33°46' E 132°05'911.4
2018-Apr-14 13:11N 33°46' E 131°54'312.1
2018-Apr-14 12:58N 33°46' E 131°51'612.0
2018-Apr-14 12:30N 33°48' E 131°44'  
Track history (hours):
 
Tides and Currents Weather Stations Pressure Air Temp Water Temp Dewpoint Dewpoint Depression Visibility Wind Speed Wind Dir Waves Ship Positions

Kieimaru

Last reported at 2018-Apr-24 12:28 UTC. Time now 2018-Apr-24 12:49 UTC.
Position N 33°55' E 132°40'.

Length 100 m; draft 6.8 m.

Type: Cargo ship. MMSI: 431300131.

Date/timePositionNaut miles runAvg speedWind from/ knotsBaromVisibWave heightAir tempDewpointWater temp
2018-Apr-24 12:28N 33°55' E 132°40'510.4
2018-Apr-24 11:57N 33°52' E 132°35'3710.8
2018-Apr-24 08:34N 33°44' E 131°52'311.7
2018-Apr-24 08:20N 33°45' E 131°49'411.7
2018-Apr-24 08:00N 33°45' E 131°44'611.5
2018-Apr-24 07:30N 33°47' E 131°37'611.5
2018-Apr-24 07:00N 33°48' E 131°31'611.5
2018-Apr-24 06:30N 33°49' E 131°24'611.3
2018-Apr-24 06:00N 33°50' E 131°17'510.1
2018-Apr-24 05:30N 33°53' E 131°12'4 7.3
2018-Apr-24 05:00N 33°56' E 131°12'0 0.0
2018-Apr-24 04:28N 33°56' E 131°12'0 0.0
2018-Apr-24 03:58N 33°56' E 131°12'0 0.0
2018-Apr-24 03:28N 33°56' E 131°12'0 0.0
2018-Apr-24 02:58N 33°56' E 131°12'0 0.0
2018-Apr-24 02:25N 33°56' E 131°12'0 0.0
2018-Apr-24 01:52N 33°56' E 131°12'0 0.0
2018-Apr-24 01:22N 33°56' E 131°12'0 0.0
2018-Apr-24 00:58N 33°56' E 131°12'0 0.0
2018-Apr-24 00:28N 33°56' E 131°12'0 0.0
2018-Apr-23 23:58N 33°56' E 131°12'0 0.0
2018-Apr-23 23:28N 33°56' E 131°12'0 0.0
2018-Apr-23 22:58N 33°56' E 131°12'0 0.0
2018-Apr-23 22:28N 33°56' E 131°12'0 0.1
2018-Apr-23 22:00N 33°56' E 131°12'2 4.7
2018-Apr-23 21:31N 33°54' E 131°12'0 0.0
2018-Apr-23 21:00N 33°54' E 131°12'3 7.0
2018-Apr-23 20:31N 33°52' E 131°15'713.4
2018-Apr-23 20:00N 33°50' E 131°23'713.4
2018-Apr-23 19:30N 33°49' E 131°31'713.4
2018-Apr-23 19:00N 33°48' E 131°39'713.5
2018-Apr-23 18:30N 33°46' E 131°47'713.2
2018-Apr-23 17:58N 33°44' E 131°55'1512.5
2018-Apr-23 16:46N 33°43' E 132°13'912.4
2018-Apr-23 16:00N 33°46' E 132°24'712.2
2018-Apr-23 15:28N 33°49' E 132°31'612.7
2018-Apr-23 14:59N 33°54' E 132°36'612.9
2018-Apr-23 14:31N 33°57' E 132°42'7412.0
2018-Apr-23 08:19N 34°27' E 134°04'412.4
2018-Apr-23 07:58N 34°26' E 134°09'712.5
2018-Apr-23 07:25N 34°24' E 134°17'613.0
2018-Apr-23 06:59N 34°26' E 134°24'613.0
2018-Apr-23 06:30N 34°30' E 134°30'713.2
2018-Apr-23 06:00N 34°34' E 134°37'713.2
2018-Apr-23 05:30N 34°37' E 134°43'713.2
2018-Apr-23 05:00N 34°41' E 134°49'1 1.6
2018-Apr-23 04:13N 34°43' E 134°50'0 0.1
2018-Apr-23 03:50N 34°43' E 134°50'0 0.0
2018-Apr-23 03:25N 34°43' E 134°50'0 0.0
2018-Apr-23 02:49N 34°43' E 134°50'0 0.0
2018-Apr-23 02:25N 34°43' E 134°50'0 0.0
2018-Apr-23 01:55N 34°43' E 134°50'0 0.0
2018-Apr-23 01:07N 34°43' E 134°50'0 0.0
2018-Apr-23 00:55N 34°43' E 134°50'0 0.0
2018-Apr-23 00:25N 34°43' E 134°50'0 0.0
2018-Apr-22 23:49N 34°43' E 134°50'0 0.0
2018-Apr-22 23:13N 34°43' E 134°50'0 0.0
2018-Apr-22 22:55N 34°43' E 134°50'0 0.1
2018-Apr-22 22:25N 34°43' E 134°50'0 0.1
2018-Apr-22 21:55N 34°43' E 134°50'0 0.0
2018-Apr-22 21:19N 34°43' E 134°50'0 0.0
2018-Apr-22 20:55N 34°43' E 134°50'0 0.1
2018-Apr-22 20:25N 34°43' E 134°50'0 0.1
2018-Apr-22 19:58N 34°43' E 134°50'0 0.0
2018-Apr-22 19:25N 34°43' E 134°50'0 0.0
2018-Apr-22 18:58N 34°43' E 134°50'0 0.0
2018-Apr-22 18:28N 34°43' E 134°50'0 0.0
2018-Apr-22 17:55N 34°43' E 134°50'0 0.0
2018-Apr-22 17:30N 34°43' E 134°50'3 5.4
2018-Apr-22 17:00N 34°40' E 134°49'612.1
2018-Apr-22 16:30N 34°37' E 134°56'713.7
2018-Apr-22 16:00N 34°36' E 135°04'510.0
2018-Apr-22 15:30N 34°31' E 135°05'612.2
2018-Apr-22 15:00N 34°25' E 135°04'612.4
2018-Apr-22 14:30N 34°19' E 135°00'612.2
2018-Apr-22 14:00N 34°13' E 134°59'511.0
2018-Apr-22 13:30N 34°08' E 134°59'611.9
2018-Apr-22 13:00N 34°02' E 134°56'612.0
2018-Apr-22 12:29N 33°56' E 134°54'711.9
2018-Apr-22 11:55N 33°50' E 134°51'511.3
2018-Apr-22 11:28N 33°46' E 134°47'611.9
2018-Apr-22 10:57N 33°42' E 134°42'511.7
2018-Apr-22 10:30N 33°38' E 134°38'611.3
2018-Apr-22 10:00N 33°34' E 134°33'611.5
2018-Apr-22 09:28N 33°29' E 134°28'17 1.1
2018-Apr-21 17:40N 33°16' E 134°15'212.0
2018-Apr-21 17:30N 33°17' E 134°17'611.8
2018-Apr-21 17:00N 33°21' E 134°21'612.3
2018-Apr-21 16:30N 33°26' E 134°26'612.6
2018-Apr-21 16:00N 33°31' E 134°31'713.1
2018-Apr-21 15:30N 33°36' E 134°36'612.8
2018-Apr-21 15:00N 33°41' E 134°41'712.7
2018-Apr-21 14:26N 33°46' E 134°47'512.6
2018-Apr-21 14:00N 33°50' E 134°51'811.9
2018-Apr-21 13:20N 33°58' E 134°53'411.9
2018-Apr-21 12:57N 34°03' E 134°54'612.2
2018-Apr-21 12:30N 34°08' E 134°56'713.6
2018-Apr-21 12:00N 34°14' E 134°58'612.2
2018-Apr-21 11:30N 34°20' E 134°59'612.2
2018-Apr-21 11:01N 34°26' E 135°01'612.3
2018-Apr-21 10:31N 34°32' E 135°03'611.2
2018-Apr-21 10:00N 34°37' E 134°59'714.2
2018-Apr-21 09:30N 34°39' E 134°51'4 6.6
2018-Apr-21 08:54N 34°43' E 134°50'0 0.0
2018-Apr-21 08:30N 34°43' E 134°50'0 0.0
2018-Apr-21 04:24N 34°43' E 134°50'0 0.0
2018-Apr-21 04:00N 34°43' E 134°50'0 0.0
2018-Apr-21 03:06N 34°43' E 134°50'0 0.0
2018-Apr-21 02:45N 34°43' E 134°50'0 0.0
2018-Apr-21 02:30N 34°43' E 134°50'0 0.0
2018-Apr-21 01:57N 34°43' E 134°50'0 0.1
2018-Apr-21 01:27N 34°43' E 134°50'0 0.1
2018-Apr-21 01:00N 34°43' E 134°50'0 0.0
2018-Apr-21 00:27N 34°43' E 134°50'0 0.1
2018-Apr-21 00:00N 34°43' E 134°50'0 0.1
2018-Apr-20 23:30N 34°43' E 134°50'0 0.0
2018-Apr-20 23:00N 34°43' E 134°50'1 1.5
2018-Apr-20 22:30N 34°42' E 134°50'4 8.7
2018-Apr-20 22:00N 34°38' E 134°53'5 9.9
2018-Apr-20 21:30N 34°37' E 134°59'4 8.2
2018-Apr-20 21:00N 34°36' E 135°03'4 7.8
2018-Apr-20 20:30N 34°32' E 135°05'510.9
2018-Apr-20 20:00N 34°27' E 135°03'510.9
2018-Apr-20 19:30N 34°22' E 135°02'510.4
2018-Apr-20 19:00N 34°17' E 134°59'511.0
2018-Apr-20 18:30N 34°12' E 134°59'611.5
2018-Apr-20 18:00N 34°06' E 134°58'611.4
2018-Apr-20 17:30N 34°00' E 134°56'611.3
2018-Apr-20 17:00N 33°55' E 134°54'611.4
2018-Apr-20 16:30N 33°50' E 134°51'611.5
2018-Apr-20 15:59N 33°45' E 134°46'12 0.7
2018-Apr-19 22:55N 33°36' E 134°38'813.5
2018-Apr-19 22:21N 33°42' E 134°44'513.7
2018-Apr-19 22:00N 33°46' E 134°47'613.1
2018-Apr-19 21:30N 33°51' E 134°52'713.4
2018-Apr-19 20:59N 33°58' E 134°54'613.3
2018-Apr-19 20:30N 34°04' E 134°55'713.4
2018-Apr-19 20:00N 34°11' E 134°57'714.4
2018-Apr-19 19:30N 34°18' E 134°58'713.7
2018-Apr-19 19:00N 34°24' E 134°59'713.9
2018-Apr-19 18:30N 34°31' E 135°02'611.6
2018-Apr-19 18:01N 34°37' E 135°01'713.2
2018-Apr-19 17:31N 34°37' E 134°53'511.0
2018-Apr-19 17:00N 34°42' E 134°50'0 0.3
2018-Apr-19 16:04N 34°43' E 134°50'0 0.0
2018-Apr-19 15:58N 34°43' E 134°50'0 0.0
2018-Apr-19 15:22N 34°43' E 134°50'0 0.0
2018-Apr-19 14:58N 34°43' E 134°50'0 0.0
2018-Apr-19 14:28N 34°43' E 134°50'0 0.1
2018-Apr-19 13:58N 34°43' E 134°50'0 0.1
2018-Apr-19 13:28N 34°43' E 134°50'0 0.0
2018-Apr-19 12:58N 34°43' E 134°50'0 0.0
2018-Apr-19 12:28N 34°43' E 134°50'0 0.0
2018-Apr-19 11:04N 34°43' E 134°50'0 0.0
2018-Apr-19 10:58N 34°43' E 134°50'0 0.0
2018-Apr-19 08:34N 34°43' E 134°50'0 0.0
2018-Apr-19 08:25N 34°43' E 134°50'0 0.1
2018-Apr-19 07:58N 34°43' E 134°50'1 2.2
2018-Apr-19 07:30N 34°42' E 134°50'612.1
2018-Apr-19 07:00N 34°38' E 134°44'612.3
2018-Apr-19 06:30N 34°34' E 134°38'611.9
2018-Apr-19 06:00N 34°31' E 134°32'612.0
2018-Apr-19 05:30N 34°28' E 134°26'612.1
2018-Apr-19 05:00N 34°25' E 134°19'7810.8
2018-Apr-18 21:48N 34°04' E 132°49'411.3
2018-Apr-18 21:29N 34°01' E 132°46'510.4
2018-Apr-18 21:00N 33°57' E 132°42'610.0
2018-Apr-18 20:25N 33°53' E 132°37'510.5
2018-Apr-18 19:59N 33°50' E 132°33'610.4
2018-Apr-18 19:26N 33°47' E 132°28'3010.9
2018-Apr-18 16:42N 33°44' E 131°52'312.6
2018-Apr-18 16:29N 33°44' E 131°49'812.4
2018-Apr-18 15:52N 33°46' E 131°40'512.4
2018-Apr-18 15:30N 33°47' E 131°35'612.0
2018-Apr-18 15:00N 33°48' E 131°28'611.7
2018-Apr-18 14:30N 33°49' E 131°21'611.3
2018-Apr-18 14:01N 33°51' E 131°14'5 9.8
2018-Apr-18 13:30N 33°56' E 131°12'1 1.7
2018-Apr-18 13:00N 33°56' E 131°12'0 0.0
2018-Apr-18 12:30N 33°56' E 131°12'0 0.0
2018-Apr-18 12:00N 33°56' E 131°12'0 0.0
2018-Apr-18 11:30N 33°56' E 131°12'0 0.0
2018-Apr-18 11:00N 33°56' E 131°12'0 0.0
2018-Apr-18 10:30N 33°56' E 131°12'0 0.0
2018-Apr-18 10:00N 33°56' E 131°12'0 0.0
2018-Apr-18 09:27N 33°56' E 131°12'0 0.0
2018-Apr-18 09:00N 33°56' E 131°12'0 0.0
2018-Apr-18 08:24N 33°56' E 131°12'0 0.0
2018-Apr-18 08:00N 33°56' E 131°12'0 0.1
2018-Apr-18 07:30N 33°56' E 131°12'2 4.2
2018-Apr-18 07:00N 33°54' E 131°12'0 0.0
2018-Apr-18 06:30N 33°54' E 131°12'0 0.0
2018-Apr-18 06:00N 33°54' E 131°12'0 0.0
2018-Apr-18 05:30N 33°54' E 131°12'0 0.0
2018-Apr-18 05:00N 33°54' E 131°12'0 0.1
2018-Apr-18 04:30N 33°54' E 131°13'0 0.1
2018-Apr-18 03:57N 33°54' E 131°12'0 0.0
2018-Apr-18 03:30N 33°54' E 131°12'0 0.0
2018-Apr-18 03:00N 33°54' E 131°12'0 0.0
2018-Apr-18 02:30N 33°54' E 131°12'0 0.0
2018-Apr-18 02:00N 33°54' E 131°12'0 0.0
2018-Apr-18 01:30N 33°54' E 131°12'0 0.0
2018-Apr-18 01:00N 33°55' E 131°12'0 0.2
2018-Apr-18 00:31N 33°54' E 131°12'611.8
2018-Apr-18 00:00N 33°51' E 131°18'713.1
2018-Apr-17 23:30N 33°50' E 131°26'713.2
2018-Apr-17 23:00N 33°49' E 131°34'713.1
2018-Apr-17 22:30N 33°47' E 131°42'713.2
2018-Apr-17 22:00N 33°46' E 131°49'713.1
2018-Apr-17 21:29N 33°44' E 131°57'713.2
2018-Apr-17 20:56N 33°42' E 132°06'613.0
2018-Apr-17 20:29N 33°43' E 132°13'813.4
2018-Apr-17 19:54N 33°46' E 132°22'613.9
2018-Apr-17 19:30N 33°48' E 132°28'714.0
2018-Apr-17 19:00N 33°52' E 132°34'714.8
2018-Apr-17 18:30N 33°57' E 132°41'7512.5
2018-Apr-17 12:32N 34°27' E 134°04'115.1
2018-Apr-17 12:27N 34°27' E 134°05'714.7
2018-Apr-17 12:00N 34°25' E 134°13'813.6
2018-Apr-17 11:27N 34°25' E 134°22'613.0
2018-Apr-17 10:59N 34°29' E 134°28'712.9
2018-Apr-17 10:27N 34°33' E 134°35'613.2
2018-Apr-17 10:00N 34°36' E 134°41'713.1
2018-Apr-17 09:30N 34°40' E 134°48'4 7.2
2018-Apr-17 09:00N 34°43' E 134°50'0 0.0
2018-Apr-17 08:27N 34°43' E 134°50'0 0.0
2018-Apr-17 06:18N 34°43' E 134°50'0 0.0
2018-Apr-17 04:36N 34°43' E 134°50'0 0.0
2018-Apr-17 02:21N 34°43' E 134°50'0 0.0
2018-Apr-17 01:51N 34°43' E 134°50'0 0.0
2018-Apr-17 01:24N 34°43' E 134°50'0 0.0
2018-Apr-17 00:15N 34°43' E 134°50'0 0.1
2018-Apr-16 23:45N 34°43' E 134°50'0 0.2
2018-Apr-16 23:30N 34°43' E 134°50'0 0.0
2018-Apr-16 23:00N 34°43' E 134°50'2 3.4
2018-Apr-16 22:30N 34°41' E 134°49'611.8
2018-Apr-16 22:00N 34°37' E 134°55'612.0
2018-Apr-16 21:30N 34°37' E 135°02'5 9.6
2018-Apr-16 21:00N 34°32' E 135°05'611.8
2018-Apr-16 20:31N 34°27' E 135°03'611.5
2018-Apr-16 20:00N 34°21' E 135°01'510.6
2018-Apr-16 19:30N 34°16' E 134°59'5 9.8
2018-Apr-16 19:00N 34°11' E 134°59'510.8
2018-Apr-16 18:30N 34°06' E 134°57'510.5
2018-Apr-16 18:00N 34°01' E 134°56'510.1
2018-Apr-16 17:30N 33°56' E 134°54'610.6
2018-Apr-16 16:58N 33°51' E 134°51'10 0.5
2018-Apr-15 19:52N 33°43' E 134°44'713.3
2018-Apr-15 19:21N 33°48' E 134°49'512.9
2018-Apr-15 18:57N 33°53' E 134°52'613.2
2018-Apr-15 18:30N 33°58' E 134°54'713.4
2018-Apr-15 18:00N 34°05' E 134°55'713.6
2018-Apr-15 17:31N 34°11' E 134°57'815.1
2018-Apr-15 17:01N 34°19' E 134°59'714.3
2018-Apr-15 16:30N 34°26' E 135°00'713.6
2018-Apr-15 16:01N 34°32' E 135°02'611.1
2018-Apr-15 15:30N 34°37' E 134°58'713.6
2018-Apr-15 15:00N 34°39' E 134°50'4 6.8
2018-Apr-15 14:29N 34°43' E 134°50'0 0.0
2018-Apr-15 13:56N 34°43' E 134°50'0 0.0
2018-Apr-15 13:26N 34°43' E 134°50'0 0.0
2018-Apr-15 12:59N 34°43' E 134°50'0 0.0
2018-Apr-15 12:26N 34°43' E 134°50'0 0.1
2018-Apr-15 11:56N 34°43' E 134°50'0 0.0
2018-Apr-15 11:29N 34°43' E 134°50'0 0.1
2018-Apr-15 10:56N 34°43' E 134°50'0 0.0
2018-Apr-15 10:26N 34°43' E 134°50'0 0.0
2018-Apr-15 09:56N 34°43' E 134°50'0 0.0
2018-Apr-15 09:26N 34°43' E 134°50'0 0.1
2018-Apr-15 08:56N 34°43' E 134°50'0 0.1
2018-Apr-15 08:26N 34°43' E 134°50'0 0.0
2018-Apr-15 07:56N 34°43' E 134°50'0 0.1
2018-Apr-15 07:26N 34°43' E 134°50'0 0.0
2018-Apr-15 06:56N 34°43' E 134°50'0 0.1
2018-Apr-15 06:20N 34°43' E 134°50'0 0.0
2018-Apr-15 05:59N 34°43' E 134°50'0 0.0
2018-Apr-15 05:26N 34°43' E 134°50'0 0.0
2018-Apr-15 04:59N 34°43' E 134°50'2 4.1
2018-Apr-15 04:30N 34°41' E 134°49'611.8
2018-Apr-15 04:00N 34°37' E 134°43'612.1
2018-Apr-15 03:30N 34°34' E 134°37'611.8
2018-Apr-15 03:01N 34°30' E 134°31'611.7
2018-Apr-15 02:30N 34°27' E 134°25'611.4
2018-Apr-15 02:00N 34°25' E 134°19'80 9.8
2018-Apr-14 17:48N 34°01' E 132°46'310.0
2018-Apr-14 17:30N 33°59' E 132°44'5 9.3
2018-Apr-14 17:00N 33°55' E 132°40'5 9.6
2018-Apr-14 16:29N 33°52' E 132°35'1210.5
2018-Apr-14 15:18N 33°50' E 132°21'1010.4
2018-Apr-14 14:20N 33°48' E 132°09'411.3
2018-Apr-14 14:00N 33°46' E 132°05'911.4
2018-Apr-14 13:11N 33°46' E 131°54'312.1
2018-Apr-14 12:58N 33°46' E 131°51'612.0
2018-Apr-14 12:30N 33°48' E 131°44'  

Dump ship's entire track history